sensor_id;sensor_type;location;lat;lon;timestamp;temperature;humidity
22532;DHT22;11432;46.924;7.114;2023-07-30T00:01:31;17.90;99.90
22532;DHT22;11432;46.924;7.114;2023-07-30T00:03:56;17.90;99.90
22532;DHT22;11432;46.924;7.114;2023-07-30T00:06:22;17.90;99.90
22532;DHT22;11432;46.924;7.114;2023-07-30T00:08:47;17.90;99.90
22532;DHT22;11432;46.924;7.114;2023-07-30T00:11:13;17.90;99.90
22532;DHT22;11432;46.924;7.114;2023-07-30T00:13:39;18.00;99.90
22532;DHT22;11432;46.924;7.114;2023-07-30T00:16:04;18.10;99.90
22532;DHT22;11432;46.924;7.114;2023-07-30T00:18:32;18.10;99.90
22532;DHT22;11432;46.924;7.114;2023-07-30T00:20:58;18.10;99.90
22532;DHT22;11432;46.924;7.114;2023-07-30T00:23:23;18.10;99.90
22532;DHT22;11432;46.924;7.114;2023-07-30T00:25:49;18.10;99.90
22532;DHT22;11432;46.924;7.114;2023-07-30T00:28:14;18.00;99.90
22532;DHT22;11432;46.924;7.114;2023-07-30T00:30:40;18.10;99.90
22532;DHT22;11432;46.924;7.114;2023-07-30T00:33:06;18.10;99.90
22532;DHT22;11432;46.924;7.114;2023-07-30T00:35:31;18.10;99.90
22532;DHT22;11432;46.924;7.114;2023-07-30T00:37:57;18.20;99.90
22532;DHT22;11432;46.924;7.114;2023-07-30T00:40:22;18.20;99.90
22532;DHT22;11432;46.924;7.114;2023-07-30T00:42:48;18.20;99.90
22532;DHT22;11432;46.924;7.114;2023-07-30T00:45:13;18.10;99.90
22532;DHT22;11432;46.924;7.114;2023-07-30T00:47:39;18.10;99.90
22532;DHT22;11432;46.924;7.114;2023-07-30T00:50:07;18.20;99.90
22532;DHT22;11432;46.924;7.114;2023-07-30T00:52:33;18.20;99.90
22532;DHT22;11432;46.924;7.114;2023-07-30T00:55:02;18.30;99.90
22532;DHT22;11432;46.924;7.114;2023-07-30T00:57:28;18.30;99.90
22532;DHT22;11432;46.924;7.114;2023-07-30T00:59:54;18.30;99.90
22532;DHT22;11432;46.924;7.114;2023-07-30T01:02:21;18.40;99.90
22532;DHT22;11432;46.924;7.114;2023-07-30T01:04:47;18.50;99.90
22532;DHT22;11432;46.924;7.114;2023-07-30T01:07:13;18.40;99.90
22532;DHT22;11432;46.924;7.114;2023-07-30T01:09:39;18.50;99.90
22532;DHT22;11432;46.924;7.114;2023-07-30T01:12:06;18.50;99.90
22532;DHT22;11432;46.924;7.114;2023-07-30T01:14:32;18.40;99.90
22532;DHT22;11432;46.924;7.114;2023-07-30T01:16:59;18.50;99.90
22532;DHT22;11432;46.924;7.114;2023-07-30T01:19:24;18.50;99.90
22532;DHT22;11432;46.924;7.114;2023-07-30T01:21:50;18.50;99.90
22532;DHT22;11432;46.924;7.114;2023-07-30T01:24:15;18.50;99.90
22532;DHT22;11432;46.924;7.114;2023-07-30T01:26:46;18.50;99.90
22532;DHT22;11432;46.924;7.114;2023-07-30T01:29:22;18.60;99.90
22532;DHT22;11432;46.924;7.114;2023-07-30T01:32:01;18.70;99.90
22532;DHT22;11432;46.924;7.114;2023-07-30T01:34:28;18.70;99.90
22532;DHT22;11432;46.924;7.114;2023-07-30T01:36:56;18.70;99.90
22532;DHT22;11432;46.924;7.114;2023-07-30T01:39:23;18.70;99.90
22532;DHT22;11432;46.924;7.114;2023-07-30T01:41:49;18.80;99.90
22532;DHT22;11432;46.924;7.114;2023-07-30T01:44:14;18.80;99.90
22532;DHT22;11432;46.924;7.114;2023-07-30T01:46:40;18.80;99.90
22532;DHT22;11432;46.924;7.114;2023-07-30T01:49:05;18.70;99.90
22532;DHT22;11432;46.924;7.114;2023-07-30T01:51:31;18.70;99.90
22532;DHT22;11432;46.924;7.114;2023-07-30T01:53:56;18.70;99.90
22532;DHT22;11432;46.924;7.114;2023-07-30T01:56:22;18.70;99.90
22532;DHT22;11432;46.924;7.114;2023-07-30T01:58:48;18.60;99.90
22532;DHT22;11432;46.924;7.114;2023-07-30T02:01:13;18.60;99.90
22532;DHT22;11432;46.924;7.114;2023-07-30T02:03:39;18.70;99.90
22532;DHT22;11432;46.924;7.114;2023-07-30T02:06:04;18.60;99.90
22532;DHT22;11432;46.924;7.114;2023-07-30T02:08:30;18.50;99.90
22532;DHT22;11432;46.924;7.114;2023-07-30T02:10:56;18.40;99.90
22532;DHT22;11432;46.924;7.114;2023-07-30T02:13:23;18.30;99.90
22532;DHT22;11432;46.924;7.114;2023-07-30T02:15:48;18.20;99.90
22532;DHT22;11432;46.924;7.114;2023-07-30T02:18:14;18.20;99.90
22532;DHT22;11432;46.924;7.114;2023-07-30T02:20:40;18.20;99.90
22532;DHT22;11432;46.924;7.114;2023-07-30T02:23:05;18.10;99.90
22532;DHT22;11432;46.924;7.114;2023-07-30T02:25:31;18.10;99.90
22532;DHT22;11432;46.924;7.114;2023-07-30T02:27:58;18.00;99.90
22532;DHT22;11432;46.924;7.114;2023-07-30T02:30:24;18.00;99.90
22532;DHT22;11432;46.924;7.114;2023-07-30T02:32:49;18.00;99.90
22532;DHT22;11432;46.924;7.114;2023-07-30T02:35:15;18.00;99.90
22532;DHT22;11432;46.924;7.114;2023-07-30T02:37:41;18.00;99.90
22532;DHT22;11432;46.924;7.114;2023-07-30T02:40:07;18.00;99.90
22532;DHT22;11432;46.924;7.114;2023-07-30T02:42:32;18.00;99.90
22532;DHT22;11432;46.924;7.114;2023-07-30T02:44:58;18.00;99.90
22532;DHT22;11432;46.924;7.114;2023-07-30T02:47:24;17.90;99.90
22532;DHT22;11432;46.924;7.114;2023-07-30T02:49:50;18.00;99.90
22532;DHT22;11432;46.924;7.114;2023-07-30T02:52:15;17.90;99.90
22532;DHT22;11432;46.924;7.114;2023-07-30T02:54:41;17.90;99.90
22532;DHT22;11432;46.924;7.114;2023-07-30T02:57:06;17.90;99.90
22532;DHT22;11432;46.924;7.114;2023-07-30T02:59:32;17.90;99.90
22532;DHT22;11432;46.924;7.114;2023-07-30T03:02:02;17.90;99.90
22532;DHT22;11432;46.924;7.114;2023-07-30T03:04:27;17.90;99.90
22532;DHT22;11432;46.924;7.114;2023-07-30T03:06:53;17.80;99.90
22532;DHT22;11432;46.924;7.114;2023-07-30T03:09:18;17.80;99.90
22532;DHT22;11432;46.924;7.114;2023-07-30T03:11:44;17.80;99.90
22532;DHT22;11432;46.924;7.114;2023-07-30T03:14:10;17.70;99.90
22532;DHT22;11432;46.924;7.114;2023-07-30T03:16:35;17.80;99.90
22532;DHT22;11432;46.924;7.114;2023-07-30T03:19:01;17.80;99.90
22532;DHT22;11432;46.924;7.114;2023-07-30T03:21:26;17.70;99.90
22532;DHT22;11432;46.924;7.114;2023-07-30T03:23:52;17.70;99.90
22532;DHT22;11432;46.924;7.114;2023-07-30T03:26:18;17.70;99.90
22532;DHT22;11432;46.924;7.114;2023-07-30T03:28:43;17.70;99.90
22532;DHT22;11432;46.924;7.114;2023-07-30T03:31:09;17.70;99.90
22532;DHT22;11432;46.924;7.114;2023-07-30T03:33:34;17.80;99.90
22532;DHT22;11432;46.924;7.114;2023-07-30T03:36:00;17.80;99.90
22532;DHT22;11432;46.924;7.114;2023-07-30T03:38:26;17.70;99.90
22532;DHT22;11432;46.924;7.114;2023-07-30T03:40:51;17.80;99.90
22532;DHT22;11432;46.924;7.114;2023-07-30T03:43:17;17.70;99.90
22532;DHT22;11432;46.924;7.114;2023-07-30T03:45:43;17.70;99.90
22532;DHT22;11432;46.924;7.114;2023-07-30T03:48:08;17.60;99.90
22532;DHT22;11432;46.924;7.114;2023-07-30T03:50:34;17.60;99.90
22532;DHT22;11432;46.924;7.114;2023-07-30T03:52:59;17.60;99.90
22532;DHT22;11432;46.924;7.114;2023-07-30T03:55:25;17.60;99.90
22532;DHT22;11432;46.924;7.114;2023-07-30T03:57:50;17.60;99.90
22532;DHT22;11432;46.924;7.114;2023-07-30T04:00:16;17.60;99.90
22532;DHT22;11432;46.924;7.114;2023-07-30T04:02:42;17.60;99.90
22532;DHT22;11432;46.924;7.114;2023-07-30T04:05:07;17.70;99.90
22532;DHT22;11432;46.924;7.114;2023-07-30T04:07:33;17.60;99.90
22532;DHT22;11432;46.924;7.114;2023-07-30T04:09:59;17.50;99.90
22532;DHT22;11432;46.924;7.114;2023-07-30T04:12:24;17.50;99.90
22532;DHT22;11432;46.924;7.114;2023-07-30T04:14:50;17.50;99.90
22532;DHT22;11432;46.924;7.114;2023-07-30T04:17:15;17.50;99.90
22532;DHT22;11432;46.924;7.114;2023-07-30T04:19:41;17.50;99.90
22532;DHT22;11432;46.924;7.114;2023-07-30T04:22:06;17.50;99.90
22532;DHT22;11432;46.924;7.114;2023-07-30T04:24:32;17.50;99.90
22532;DHT22;11432;46.924;7.114;2023-07-30T04:26:58;17.50;99.90
22532;DHT22;11432;46.924;7.114;2023-07-30T04:29:23;17.50;99.90
22532;DHT22;11432;46.924;7.114;2023-07-30T04:31:49;17.40;99.90
22532;DHT22;11432;46.924;7.114;2023-07-30T04:34:14;17.40;99.90
22532;DHT22;11432;46.924;7.114;2023-07-30T04:36:40;17.40;99.90
22532;DHT22;11432;46.924;7.114;2023-07-30T04:39:06;17.40;99.90
22532;DHT22;11432;46.924;7.114;2023-07-30T04:41:31;17.50;99.90
22532;DHT22;11432;46.924;7.114;2023-07-30T04:43:57;17.40;99.90
22532;DHT22;11432;46.924;7.114;2023-07-30T04:46:22;17.50;99.90
22532;DHT22;11432;46.924;7.114;2023-07-30T04:48:48;17.50;99.90
22532;DHT22;11432;46.924;7.114;2023-07-30T04:51:13;17.50;99.90
22532;DHT22;11432;46.924;7.114;2023-07-30T04:53:39;17.50;99.90
22532;DHT22;11432;46.924;7.114;2023-07-30T04:56:05;17.60;99.90
22532;DHT22;11432;46.924;7.114;2023-07-30T04:58:30;17.60;99.90
22532;DHT22;11432;46.924;7.114;2023-07-30T05:00:56;17.60;99.90
22532;DHT22;11432;46.924;7.114;2023-07-30T05:03:21;17.60;99.90
22532;DHT22;11432;46.924;7.114;2023-07-30T05:05:47;17.60;99.90
22532;DHT22;11432;46.924;7.114;2023-07-30T05:08:13;17.70;99.90
22532;DHT22;11432;46.924;7.114;2023-07-30T05:10:38;17.70;99.90
22532;DHT22;11432;46.924;7.114;2023-07-30T05:13:04;17.80;99.90
22532;DHT22;11432;46.924;7.114;2023-07-30T05:15:29;17.80;99.90
22532;DHT22;11432;46.924;7.114;2023-07-30T05:17:55;17.80;99.90
22532;DHT22;11432;46.924;7.114;2023-07-30T05:20:20;17.80;99.90
22532;DHT22;11432;46.924;7.114;2023-07-30T05:22:46;18.00;99.90
22532;DHT22;11432;46.924;7.114;2023-07-30T05:25:12;18.00;99.90
22532;DHT22;11432;46.924;7.114;2023-07-30T05:27:37;18.10;99.90
22532;DHT22;11432;46.924;7.114;2023-07-30T05:30:03;18.20;99.90
22532;DHT22;11432;46.924;7.114;2023-07-30T05:32:29;18.20;99.90
22532;DHT22;11432;46.924;7.114;2023-07-30T05:34:54;18.40;99.90
22532;DHT22;11432;46.924;7.114;2023-07-30T05:37:20;18.40;99.90
22532;DHT22;11432;46.924;7.114;2023-07-30T05:39:45;18.40;99.90
22532;DHT22;11432;46.924;7.114;2023-07-30T05:42:11;18.40;99.90
22532;DHT22;11432;46.924;7.114;2023-07-30T05:44:37;18.50;99.90
22532;DHT22;11432;46.924;7.114;2023-07-30T05:47:02;18.50;99.90
22532;DHT22;11432;46.924;7.114;2023-07-30T05:49:28;18.40;99.90
22532;DHT22;11432;46.924;7.114;2023-07-30T05:51:54;18.40;99.90
22532;DHT22;11432;46.924;7.114;2023-07-30T05:54:19;18.40;99.90
22532;DHT22;11432;46.924;7.114;2023-07-30T05:56:45;18.50;99.90
22532;DHT22;11432;46.924;7.114;2023-07-30T05:59:10;18.40;99.90
22532;DHT22;11432;46.924;7.114;2023-07-30T06:01:36;18.50;99.90
22532;DHT22;11432;46.924;7.114;2023-07-30T06:04:01;18.50;99.90
22532;DHT22;11432;46.924;7.114;2023-07-30T06:06:29;18.60;99.90
22532;DHT22;11432;46.924;7.114;2023-07-30T06:08:54;18.60;99.90
22532;DHT22;11432;46.924;7.114;2023-07-30T06:11:21;18.80;99.90
22532;DHT22;11432;46.924;7.114;2023-07-30T06:13:46;19.00;99.90
22532;DHT22;11432;46.924;7.114;2023-07-30T06:16:13;19.20;99.90
22532;DHT22;11432;46.924;7.114;2023-07-30T06:18:38;19.30;99.90
22532;DHT22;11432;46.924;7.114;2023-07-30T06:21:04;19.30;99.90
22532;DHT22;11432;46.924;7.114;2023-07-30T06:23:29;19.30;99.90
22532;DHT22;11432;46.924;7.114;2023-07-30T06:25:55;19.40;99.90
22532;DHT22;11432;46.924;7.114;2023-07-30T06:28:20;19.40;99.90
22532;DHT22;11432;46.924;7.114;2023-07-30T06:30:46;19.60;99.90
22532;DHT22;11432;46.924;7.114;2023-07-30T06:33:12;19.60;99.90
22532;DHT22;11432;46.924;7.114;2023-07-30T06:35:38;19.60;99.90
22532;DHT22;11432;46.924;7.114;2023-07-30T06:38:05;19.70;99.90
22532;DHT22;11432;46.924;7.114;2023-07-30T06:40:31;19.90;99.90
22532;DHT22;11432;46.924;7.114;2023-07-30T06:42:57;20.10;99.90
22532;DHT22;11432;46.924;7.114;2023-07-30T06:45:22;20.10;99.90
22532;DHT22;11432;46.924;7.114;2023-07-30T06:47:48;20.00;99.90
22532;DHT22;11432;46.924;7.114;2023-07-30T06:50:13;20.00;99.90
22532;DHT22;11432;46.924;7.114;2023-07-30T06:52:39;19.90;99.90
22532;DHT22;11432;46.924;7.114;2023-07-30T06:55:05;19.90;99.90
22532;DHT22;11432;46.924;7.114;2023-07-30T06:57:30;19.80;99.90
22532;DHT22;11432;46.924;7.114;2023-07-30T06:59:56;19.80;99.90
22532;DHT22;11432;46.924;7.114;2023-07-30T07:02:23;19.90;99.90
22532;DHT22;11432;46.924;7.114;2023-07-30T07:04:48;20.00;99.90
22532;DHT22;11432;46.924;7.114;2023-07-30T07:07:14;20.10;99.90
22532;DHT22;11432;46.924;7.114;2023-07-30T07:09:39;20.10;99.90
22532;DHT22;11432;46.924;7.114;2023-07-30T07:12:06;20.00;99.90
22532;DHT22;11432;46.924;7.114;2023-07-30T07:14:31;19.80;99.90
22532;DHT22;11432;46.924;7.114;2023-07-30T07:16:57;19.70;99.90
22532;DHT22;11432;46.924;7.114;2023-07-30T07:19:23;19.70;99.90
22532;DHT22;11432;46.924;7.114;2023-07-30T07:21:48;19.60;99.90
22532;DHT22;11432;46.924;7.114;2023-07-30T07:24:14;19.60;99.90
22532;DHT22;11432;46.924;7.114;2023-07-30T07:26:40;19.70;99.90
22532;DHT22;11432;46.924;7.114;2023-07-30T07:29:06;19.90;99.90
22532;DHT22;11432;46.924;7.114;2023-07-30T07:31:31;20.10;99.90
22532;DHT22;11432;46.924;7.114;2023-07-30T07:33:57;20.20;99.90
22532;DHT22;11432;46.924;7.114;2023-07-30T07:36:22;20.30;1.00
22532;DHT22;11432;46.924;7.114;2023-07-30T07:38:48;20.30;1.00
22532;DHT22;11432;46.924;7.114;2023-07-30T07:41:17;20.10;99.90
22532;DHT22;11432;46.924;7.114;2023-07-30T07:43:43;20.00;99.90
22532;DHT22;11432;46.924;7.114;2023-07-30T07:46:09;19.90;99.90
22532;DHT22;11432;46.924;7.114;2023-07-30T07:48:40;20.10;99.90
22532;DHT22;11432;46.924;7.114;2023-07-30T07:51:06;20.20;99.90
22532;DHT22;11432;46.924;7.114;2023-07-30T07:53:32;20.50;1.00
22532;DHT22;11432;46.924;7.114;2023-07-30T07:55:57;20.80;1.00
22532;DHT22;11432;46.924;7.114;2023-07-30T07:58:23;20.90;99.90
22532;DHT22;11432;46.924;7.114;2023-07-30T08:00:48;21.10;1.00
22532;DHT22;11432;46.924;7.114;2023-07-30T08:03:14;21.20;99.90
22532;DHT22;11432;46.924;7.114;2023-07-30T08:05:40;21.30;1.00
22532;DHT22;11432;46.924;7.114;2023-07-30T08:08:05;21.20;1.00
22532;DHT22;11432;46.924;7.114;2023-07-30T08:10:31;20.90;1.00
22532;DHT22;11432;46.924;7.114;2023-07-30T08:12:57;21.00;1.00
22532;DHT22;11432;46.924;7.114;2023-07-30T08:15:22;21.20;1.00
22532;DHT22;11432;46.924;7.114;2023-07-30T08:17:48;21.10;99.90
22532;DHT22;11432;46.924;7.114;2023-07-30T08:20:13;20.90;1.00
22532;DHT22;11432;46.924;7.114;2023-07-30T08:22:39;21.00;99.90
22532;DHT22;11432;46.924;7.114;2023-07-30T08:25:05;21.00;1.00
22532;DHT22;11432;46.924;7.114;2023-07-30T08:27:31;20.90;99.90
22532;DHT22;11432;46.924;7.114;2023-07-30T08:29:56;20.90;1.00
22532;DHT22;11432;46.924;7.114;2023-07-30T08:32:22;21.00;1.00
22532;DHT22;11432;46.924;7.114;2023-07-30T08:34:47;21.00;99.90
22532;DHT22;11432;46.924;7.114;2023-07-30T08:37:13;21.10;99.90
22532;DHT22;11432;46.924;7.114;2023-07-30T08:39:39;21.20;1.00
22532;DHT22;11432;46.924;7.114;2023-07-30T08:42:04;21.20;99.90
22532;DHT22;11432;46.924;7.114;2023-07-30T08:44:30;21.40;99.90
22532;DHT22;11432;46.924;7.114;2023-07-30T08:46:55;21.50;1.00
22532;DHT22;11432;46.924;7.114;2023-07-30T08:49:21;21.20;1.00
22532;DHT22;11432;46.924;7.114;2023-07-30T08:51:48;21.00;1.00
22532;DHT22;11432;46.924;7.114;2023-07-30T08:54:17;20.80;1.00
22532;DHT22;11432;46.924;7.114;2023-07-30T08:56:44;21.00;99.90
22532;DHT22;11432;46.924;7.114;2023-07-30T08:59:10;21.30;99.90
22532;DHT22;11432;46.924;7.114;2023-07-30T09:01:38;21.30;99.90
22532;DHT22;11432;46.924;7.114;2023-07-30T09:04:06;21.50;1.00
22532;DHT22;11432;46.924;7.114;2023-07-30T09:06:35;21.80;99.90
22532;DHT22;11432;46.924;7.114;2023-07-30T09:09:01;21.90;1.00
22532;DHT22;11432;46.924;7.114;2023-07-30T09:11:28;21.90;1.00
22532;DHT22;11432;46.924;7.114;2023-07-30T09:13:54;22.00;99.90
22532;DHT22;11432;46.924;7.114;2023-07-30T09:16:25;21.80;22.20
22532;DHT22;11432;46.924;7.114;2023-07-30T09:18:51;21.90;1.00
22532;DHT22;11432;46.924;7.114;2023-07-30T09:21:19;21.80;1.00
22532;DHT22;11432;46.924;7.114;2023-07-30T09:23:46;21.60;1.00
22532;DHT22;11432;46.924;7.114;2023-07-30T09:26:13;21.80;1.00
22532;DHT22;11432;46.924;7.114;2023-07-30T09:28:39;21.90;1.00
22532;DHT22;11432;46.924;7.114;2023-07-30T09:31:08;22.00;1.00
22532;DHT22;11432;46.924;7.114;2023-07-30T09:33:34;22.00;1.00
22532;DHT22;11432;46.924;7.114;2023-07-30T09:36:04;21.50;1.00
22532;DHT22;11432;46.924;7.114;2023-07-30T09:38:30;21.20;17.30
22532;DHT22;11432;46.924;7.114;2023-07-30T09:41:01;21.50;25.90
22532;DHT22;11432;46.924;7.114;2023-07-30T09:43:34;22.00;1.00
22532;DHT22;11432;46.924;7.114;2023-07-30T09:46:05;22.40;1.00
22532;DHT22;11432;46.924;7.114;2023-07-30T09:48:32;22.40;1.00
22532;DHT22;11432;46.924;7.114;2023-07-30T09:51:02;22.10;1.00
22532;DHT22;11432;46.924;7.114;2023-07-30T09:53:30;21.70;1.00
22532;DHT22;11432;46.924;7.114;2023-07-30T09:56:03;22.10;1.00
22532;DHT22;11432;46.924;7.114;2023-07-30T09:58:29;22.20;1.00
22532;DHT22;11432;46.924;7.114;2023-07-30T10:00:58;22.30;1.00
22532;DHT22;11432;46.924;7.114;2023-07-30T10:03:24;22.40;1.00
22532;DHT22;11432;46.924;7.114;2023-07-30T10:05:54;22.40;1.00
22532;DHT22;11432;46.924;7.114;2023-07-30T10:08:23;22.50;15.70
22532;DHT22;11432;46.924;7.114;2023-07-30T10:10:50;22.70;84.30
22532;DHT22;11432;46.924;7.114;2023-07-30T10:13:18;22.40;1.00
22532;DHT22;11432;46.924;7.114;2023-07-30T10:15:46;22.20;1.00
22532;DHT22;11432;46.924;7.114;2023-07-30T10:18:11;22.60;1.00
22532;DHT22;11432;46.924;7.114;2023-07-30T10:20:37;22.70;1.00
22532;DHT22;11432;46.924;7.114;2023-07-30T10:23:04;22.60;99.90
22532;DHT22;11432;46.924;7.114;2023-07-30T10:25:43;22.70;99.90
22532;DHT22;11432;46.924;7.114;2023-07-30T10:28:11;22.80;99.90
22532;DHT22;11432;46.924;7.114;2023-07-30T10:30:58;22.80;99.90
22532;DHT22;11432;46.924;7.114;2023-07-30T10:33:24;22.80;99.90
22532;DHT22;11432;46.924;7.114;2023-07-30T10:36:10;23.00;99.90
22532;DHT22;11432;46.924;7.114;2023-07-30T10:38:35;23.10;99.90
22532;DHT22;11432;46.924;7.114;2023-07-30T10:41:09;23.20;99.90
22532;DHT22;11432;46.924;7.114;2023-07-30T10:43:38;23.10;99.90
22532;DHT22;11432;46.924;7.114;2023-07-30T10:46:04;23.00;99.90
22532;DHT22;11432;46.924;7.114;2023-07-30T10:48:35;23.10;99.90
22532;DHT22;11432;46.924;7.114;2023-07-30T10:51:03;23.10;99.90
22532;DHT22;11432;46.924;7.114;2023-07-30T10:53:29;23.20;99.90
22532;DHT22;11432;46.924;7.114;2023-07-30T10:56:00;23.60;99.90
22532;DHT22;11432;46.924;7.114;2023-07-30T10:58:31;23.80;99.90
22532;DHT22;11432;46.924;7.114;2023-07-30T11:00:58;23.90;99.90
22532;DHT22;11432;46.924;7.114;2023-07-30T11:03:26;23.80;99.90
22532;DHT22;11432;46.924;7.114;2023-07-30T11:05:53;24.10;99.90
22532;DHT22;11432;46.924;7.114;2023-07-30T11:08:31;24.20;99.90
22532;DHT22;11432;46.924;7.114;2023-07-30T11:10:57;24.20;99.90
22532;DHT22;11432;46.924;7.114;2023-07-30T11:13:23;24.20;99.90
22532;DHT22;11432;46.924;7.114;2023-07-30T11:15:48;24.30;99.90
22532;DHT22;11432;46.924;7.114;2023-07-30T11:18:14;24.10;99.90
22532;DHT22;11432;46.924;7.114;2023-07-30T11:20:40;24.20;99.90
22532;DHT22;11432;46.924;7.114;2023-07-30T11:23:22;24.20;99.90
22532;DHT22;11432;46.924;7.114;2023-07-30T11:25:49;24.40;99.90
22532;DHT22;11432;46.924;7.114;2023-07-30T11:28:31;24.30;99.90
22532;DHT22;11432;46.924;7.114;2023-07-30T11:31:19;24.40;99.90
22532;DHT22;11432;46.924;7.114;2023-07-30T11:33:48;24.50;99.90
22532;DHT22;11432;46.924;7.114;2023-07-30T11:36:16;24.50;99.90
22532;DHT22;11432;46.924;7.114;2023-07-30T11:38:43;24.70;99.90
22532;DHT22;11432;46.924;7.114;2023-07-30T11:41:10;24.70;99.90
22532;DHT22;11432;46.924;7.114;2023-07-30T11:43:41;25.00;99.90
22532;DHT22;11432;46.924;7.114;2023-07-30T11:46:15;25.00;1.00
22532;DHT22;11432;46.924;7.114;2023-07-30T11:48:46;24.90;1.00
22532;DHT22;11432;46.924;7.114;2023-07-30T11:51:38;25.10;1.00
22532;DHT22;11432;46.924;7.114;2023-07-30T11:54:03;25.00;1.00
22532;DHT22;11432;46.924;7.114;2023-07-30T11:56:33;25.00;99.90
22532;DHT22;11432;46.924;7.114;2023-07-30T11:59:06;25.10;99.90
22532;DHT22;11432;46.924;7.114;2023-07-30T12:01:33;25.30;1.00
22532;DHT22;11432;46.924;7.114;2023-07-30T12:04:01;25.30;1.00
22532;DHT22;11432;46.924;7.114;2023-07-30T12:06:49;25.20;1.00
22532;DHT22;11432;46.924;7.114;2023-07-30T12:09:20;25.20;1.00
22532;DHT22;11432;46.924;7.114;2023-07-30T12:11:56;25.10;1.00
22532;DHT22;11432;46.924;7.114;2023-07-30T12:14:26;25.30;1.00
22532;DHT22;11432;46.924;7.114;2023-07-30T12:16:56;25.70;1.00
22532;DHT22;11432;46.924;7.114;2023-07-30T12:19:22;25.70;1.00
22532;DHT22;11432;46.924;7.114;2023-07-30T12:21:47;25.40;1.00
22532;DHT22;11432;46.924;7.114;2023-07-30T12:24:13;25.30;1.00
22532;DHT22;11432;46.924;7.114;2023-07-30T12:26:38;25.70;99.90
22532;DHT22;11432;46.924;7.114;2023-07-30T12:29:04;25.70;99.90
22532;DHT22;11432;46.924;7.114;2023-07-30T12:31:30;25.90;99.90
22532;DHT22;11432;46.924;7.114;2023-07-30T12:33:55;25.80;99.90
22532;DHT22;11432;46.924;7.114;2023-07-30T12:36:21;25.90;1.00
22532;DHT22;11432;46.924;7.114;2023-07-30T12:38:47;26.20;1.00
22532;DHT22;11432;46.924;7.114;2023-07-30T12:41:12;26.50;1.00
22532;DHT22;11432;46.924;7.114;2023-07-30T12:43:38;26.60;1.00
22532;DHT22;11432;46.924;7.114;2023-07-30T12:46:03;27.20;1.00
22532;DHT22;11432;46.924;7.114;2023-07-30T12:48:29;27.80;1.00
22532;DHT22;11432;46.924;7.114;2023-07-30T12:50:55;27.80;1.00
22532;DHT22;11432;46.924;7.114;2023-07-30T12:53:20;27.80;1.00
22532;DHT22;11432;46.924;7.114;2023-07-30T12:55:46;28.30;1.00
22532;DHT22;11432;46.924;7.114;2023-07-30T12:58:11;28.30;1.00
22532;DHT22;11432;46.924;7.114;2023-07-30T13:00:37;28.00;1.00
22532;DHT22;11432;46.924;7.114;2023-07-30T13:03:03;28.30;1.00
22532;DHT22;11432;46.924;7.114;2023-07-30T13:05:28;28.00;1.00
22532;DHT22;11432;46.924;7.114;2023-07-30T13:07:54;27.80;1.00
22532;DHT22;11432;46.924;7.114;2023-07-30T13:10:20;27.80;1.00
22532;DHT22;11432;46.924;7.114;2023-07-30T13:12:45;28.20;1.00
22532;DHT22;11432;46.924;7.114;2023-07-30T13:15:11;27.80;1.00
22532;DHT22;11432;46.924;7.114;2023-07-30T13:17:37;27.70;1.00
22532;DHT22;11432;46.924;7.114;2023-07-30T13:20:04;28.10;1.00
22532;DHT22;11432;46.924;7.114;2023-07-30T13:22:30;28.20;1.00
22532;DHT22;11432;46.924;7.114;2023-07-30T13:24:56;28.20;1.00
22532;DHT22;11432;46.924;7.114;2023-07-30T13:27:21;28.40;1.00
22532;DHT22;11432;46.924;7.114;2023-07-30T13:29:47;28.10;1.00
22532;DHT22;11432;46.924;7.114;2023-07-30T13:32:14;28.60;1.00
22532;DHT22;11432;46.924;7.114;2023-07-30T13:34:40;28.20;1.00
22532;DHT22;11432;46.924;7.114;2023-07-30T13:37:06;28.20;1.00
22532;DHT22;11432;46.924;7.114;2023-07-30T13:39:31;28.30;1.00
22532;DHT22;11432;46.924;7.114;2023-07-30T13:41:57;28.30;1.00
22532;DHT22;11432;46.924;7.114;2023-07-30T13:44:22;28.80;1.00
22532;DHT22;11432;46.924;7.114;2023-07-30T13:46:48;28.90;1.00
22532;DHT22;11432;46.924;7.114;2023-07-30T13:49:14;28.90;1.00
22532;DHT22;11432;46.924;7.114;2023-07-30T13:51:39;28.50;1.00
22532;DHT22;11432;46.924;7.114;2023-07-30T13:54:05;28.40;1.00
22532;DHT22;11432;46.924;7.114;2023-07-30T13:56:33;28.70;1.00
22532;DHT22;11432;46.924;7.114;2023-07-30T13:58:59;28.80;1.00
22532;DHT22;11432;46.924;7.114;2023-07-30T14:01:25;28.80;1.00
22532;DHT22;11432;46.924;7.114;2023-07-30T14:03:50;28.70;1.00
22532;DHT22;11432;46.924;7.114;2023-07-30T14:06:16;28.50;1.00
22532;DHT22;11432;46.924;7.114;2023-07-30T14:08:41;28.80;99.90
22532;DHT22;11432;46.924;7.114;2023-07-30T14:11:07;29.00;1.00
22532;DHT22;11432;46.924;7.114;2023-07-30T14:13:33;29.60;1.00
22532;DHT22;11432;46.924;7.114;2023-07-30T14:15:58;29.30;99.90
22532;DHT22;11432;46.924;7.114;2023-07-30T14:18:25;29.40;99.90
22532;DHT22;11432;46.924;7.114;2023-07-30T14:20:51;29.00;99.90
22532;DHT22;11432;46.924;7.114;2023-07-30T14:23:16;29.00;1.00
22532;DHT22;11432;46.924;7.114;2023-07-30T14:25:42;29.00;99.90
22532;DHT22;11432;46.924;7.114;2023-07-30T14:28:08;29.60;1.00
22532;DHT22;11432;46.924;7.114;2023-07-30T14:30:33;29.60;1.00
22532;DHT22;11432;46.924;7.114;2023-07-30T14:33:03;29.30;1.00
22532;DHT22;11432;46.924;7.114;2023-07-30T14:35:29;29.80;1.00
22532;DHT22;11432;46.924;7.114;2023-07-30T14:37:55;29.60;1.00
22532;DHT22;11432;46.924;7.114;2023-07-30T14:40:20;29.30;99.90
22532;DHT22;11432;46.924;7.114;2023-07-30T14:42:47;30.30;99.90
22532;DHT22;11432;46.924;7.114;2023-07-30T14:45:12;30.40;1.00
22532;DHT22;11432;46.924;7.114;2023-07-30T14:47:38;30.10;1.00
22532;DHT22;11432;46.924;7.114;2023-07-30T14:50:05;29.90;99.90
22532;DHT22;11432;46.924;7.114;2023-07-30T14:52:31;30.30;1.00
22532;DHT22;11432;46.924;7.114;2023-07-30T14:54:57;29.70;1.00
22532;DHT22;11432;46.924;7.114;2023-07-30T14:57:23;29.60;1.00
22532;DHT22;11432;46.924;7.114;2023-07-30T14:59:48;30.20;1.00
22532;DHT22;11432;46.924;7.114;2023-07-30T15:02:14;30.30;1.00
22532;DHT22;11432;46.924;7.114;2023-07-30T15:04:40;29.50;1.00
22532;DHT22;11432;46.924;7.114;2023-07-30T15:07:05;30.20;1.00
22532;DHT22;11432;46.924;7.114;2023-07-30T15:09:31;30.40;1.00
22532;DHT22;11432;46.924;7.114;2023-07-30T15:12:01;29.70;99.90
22532;DHT22;11432;46.924;7.114;2023-07-30T15:14:27;29.50;99.90
22532;DHT22;11432;46.924;7.114;2023-07-30T15:16:53;29.60;99.90
22532;DHT22;11432;46.924;7.114;2023-07-30T15:19:18;29.50;1.00
22532;DHT22;11432;46.924;7.114;2023-07-30T15:21:44;29.30;99.90
22532;DHT22;11432;46.924;7.114;2023-07-30T15:24:10;30.10;1.00
22532;DHT22;11432;46.924;7.114;2023-07-30T15:26:35;29.80;99.90
22532;DHT22;11432;46.924;7.114;2023-07-30T15:29:01;29.60;99.90
22532;DHT22;11432;46.924;7.114;2023-07-30T15:31:27;30.00;99.90